Time;durP1;ratioP1;P1;durP2;ratioP2;P2;SDS_P1;SDS_P2;PMS_P1;PMS_P2;Temp;Humidity;BMP_temperature;BMP_pressure;BME280_temperature;BME280_humidity;BME280_pressure;Samples;Min_cycle;Max_cycle;Signal;HPM_P1;HPM_P2
2023/12/17 00:00:57;;;;;;;47.17;37.55;;;4.90;99.90;;;;;;5072766;28;20056;-63
2023/12/17 00:03:22;;;;;;;51.03;40.58;;;4.70;99.90;;;;;;5074098;28;20032;-63
2023/12/17 00:05:48;;;;;;;49.72;40.28;;;4.50;99.90;;;;;;5074177;28;20070;-64
2023/12/17 00:08:19;;;;;;;52.67;42.38;;;4.40;99.90;;;;;;5073700;28;20021;-63
2023/12/17 00:10:45;;;;;;;57.58;46.00;;;4.30;99.90;;;;;;5074264;28;20024;-64
2023/12/17 00:13:11;;;;;;;58.30;45.75;;;4.20;99.90;;;;;;5074303;28;20033;-63
2023/12/17 00:15:36;;;;;;;55.20;43.35;;;4.10;99.90;;;;;;5074197;28;20040;-62
2023/12/17 00:18:02;;;;;;;61.17;45.58;;;4.10;99.90;;;;;;5074320;28;20043;-63
2023/12/17 00:20:28;;;;;;;61.40;43.70;;;3.90;99.90;;;;;;5073957;28;20029;-63
2023/12/17 00:22:53;;;;;;;61.72;42.67;;;3.90;99.90;;;;;;5073597;28;20029;-63
2023/12/17 00:25:19;;;;;;;56.35;41.00;;;3.90;99.90;;;;;;5073719;28;20036;-63
2023/12/17 00:27:45;;;;;;;56.67;41.38;;;3.80;99.90;;;;;;5073803;28;20013;-64
2023/12/17 00:30:11;;;;;;;58.60;40.60;;;3.80;99.90;;;;;;5073619;28;20033;-63
2023/12/17 00:32:36;;;;;;;60.85;39.47;;;3.70;99.90;;;;;;5073779;28;20025;-63
2023/12/17 00:35:02;;;;;;;54.63;35.03;;;3.70;99.90;;;;;;5073393;28;20032;-63
2023/12/17 00:37:28;;;;;;;46.70;32.05;;;3.60;99.90;;;;;;5073639;28;20490;-63
2023/12/17 00:39:54;;;;;;;45.67;31.05;;;3.50;99.90;;;;;;5069318;28;20056;-63
2023/12/17 00:42:19;;;;;;;43.70;30.80;;;3.50;99.90;;;;;;5067459;28;20421;-63
2023/12/17 00:44:45;;;;;;;40.33;27.67;;;3.50;99.90;;;;;;5073521;28;20042;-63
2023/12/17 00:47:11;;;;;;;43.63;26.73;;;3.60;99.90;;;;;;5061207;28;20108;-62
2023/12/17 00:49:36;;;;;;;44.40;29.40;;;3.50;99.90;;;;;;5070462;28;20032;-61
2023/12/17 00:52:02;;;;;;;40.42;27.23;;;3.50;99.90;;;;;;5072854;28;20123;-63
2023/12/17 00:54:28;;;;;;;40.78;27.35;;;3.40;99.90;;;;;;5073081;28;20028;-62
2023/12/17 00:56:53;;;;;;;41.55;26.55;;;3.40;99.90;;;;;;5073492;28;20040;-63
2023/12/17 00:59:19;;;;;;;36.10;25.50;;;3.30;99.90;;;;;;5072888;28;20053;-62
2023/12/17 01:01:44;;;;;;;33.72;23.63;;;3.30;99.90;;;;;;5073046;28;20020;-62
2023/12/17 01:04:10;;;;;;;29.38;21.92;;;3.40;99.90;;;;;;5060897;28;20052;-62
2023/12/17 01:06:36;;;;;;;28.13;21.77;;;3.40;99.90;;;;;;5052314;28;20108;-62
2023/12/17 01:09:02;;;;;;;32.33;20.75;;;3.30;99.90;;;;;;5052651;28;20029;-62
2023/12/17 01:11:28;;;;;;;31.65;19.80;;;3.30;99.90;;;;;;5052234;28;20480;-62
2023/12/17 01:13:53;;;;;;;25.50;18.48;;;3.40;99.90;;;;;;5052810;28;20025;-62
2023/12/17 01:16:19;;;;;;;29.20;18.83;;;3.40;99.90;;;;;;5052418;28;20045;-63
2023/12/17 01:18:45;;;;;;;27.02;18.88;;;3.40;99.90;;;;;;5052684;28;20399;-63
2023/12/17 01:21:10;;;;;;;32.20;18.42;;;3.50;99.90;;;;;;5052810;28;20032;-62
2023/12/17 01:23:37;;;;;;;25.05;17.02;;;3.50;99.90;;;;;;5052622;28;20025;-63
2023/12/17 01:26:03;;;;;;;39.03;17.55;;;3.60;99.90;;;;;;5052721;28;20025;-63
2023/12/17 01:28:29;;;;;;;39.53;16.63;;;3.50;99.90;;;;;;5052906;28;20096;-63
2023/12/17 01:30:54;;;;;;;21.23;16.20;;;3.40;99.90;;;;;;5052511;28;20452;-63
2023/12/17 01:33:20;;;;;;;19.77;16.05;;;3.40;99.90;;;;;;5052475;28;20484;-63
2023/12/17 01:35:46;;;;;;;37.10;16.63;;;3.50;99.90;;;;;;5052053;28;20029;-63
2023/12/17 01:38:11;;;;;;;22.13;15.70;;;3.50;99.90;;;;;;5052362;28;20079;-63
2023/12/17 01:40:39;;;;;;;21.88;14.65;;;3.40;99.90;;;;;;5052142;28;20075;-63
2023/12/17 01:43:08;;;;;;;27.35;14.50;;;3.50;99.90;;;;;;5054410;28;20025;-63
2023/12/17 01:45:33;;;;;;;16.10;12.00;;;3.40;99.90;;;;;;5072196;28;20308;-63
2023/12/17 01:47:59;;;;;;;12.65;9.88;;;3.40;99.90;;;;;;5071869;28;20035;-63
2023/12/17 01:50:26;;;;;;;11.60;9.20;;;3.70;99.90;;;;;;5071779;28;20074;-63
2023/12/17 01:52:52;;;;;;;8.77;7.88;;;3.80;99.90;;;;;;5072081;28;20518;-63
2023/12/17 01:55:18;;;;;;;8.38;7.47;;;4.00;99.90;;;;;;5071771;28;20454;-63
2023/12/17 01:57:44;;;;;;;8.45;7.57;;;4.10;99.90;;;;;;5071914;28;20013;-63
2023/12/17 02:00:11;;;;;;;10.73;7.88;;;4.20;99.90;;;;;;5071848;28;20093;-62
2023/12/17 02:02:37;;;;;;;11.32;8.13;;;4.20;99.90;;;;;;5071881;28;20136;-63
2023/12/17 02:05:05;;;;;;;7.88;7.07;;;4.00;99.90;;;;;;5071724;28;20116;-63
2023/12/17 02:07:32;;;;;;;8.57;7.68;;;4.10;99.90;;;;;;5071819;28;20029;-63
2023/12/17 02:09:58;;;;;;;8.23;7.43;;;4.00;99.90;;;;;;5071829;28;20021;-63
2023/12/17 02:12:27;;;;;;;8.52;7.18;;;4.00;99.90;;;;;;5071622;28;20089;-62
2023/12/17 02:14:53;;;;;;;11.90;7.93;;;3.90;99.90;;;;;;5071825;28;20081;-62
2023/12/17 02:17:28;;;;;;;11.40;7.97;;;3.60;99.90;;;;;;5071687;28;20028;-62
2023/12/17 02:19:54;;;;;;;10.43;8.85;;;3.60;99.90;;;;;;5071308;28;20104;-62
2023/12/17 02:22:25;;;;;;;10.73;9.20;;;3.50;99.90;;;;;;5070914;28;20146;-63
2023/12/17 02:24:54;;;;;;;13.05;10.43;;;3.50;99.90;;;;;;5071751;28;20495;-62
2023/12/17 02:27:21;;;;;;;15.90;11.52;;;3.40;99.90;;;;;;5071518;28;20024;-62
2023/12/17 02:29:47;;;;;;;14.02;10.98;;;3.20;99.90;;;;;;5071450;28;20399;-62
2023/12/17 02:32:14;;;;;;;15.93;11.20;;;3.20;99.90;;;;;;5070043;28;20035;-63
2023/12/17 02:34:40;;;;;;;18.63;11.80;;;3.20;99.90;;;;;;5071078;28;20031;-63
2023/12/17 02:37:06;;;;;;;20.15;11.25;;;3.10;99.90;;;;;;5071756;28;20028;-62
2023/12/17 02:39:31;;;;;;;12.45;10.93;;;3.00;99.90;;;;;;5071286;28;20171;-62
2023/12/17 02:41:58;;;;;;;11.48;10.13;;;2.90;99.90;;;;;;5071244;28;20519;-62
2023/12/17 02:44:24;;;;;;;18.52;10.75;;;2.90;99.90;;;;;;5071028;28;20039;-63
2023/12/17 02:46:50;;;;;;;12.25;10.43;;;2.90;99.90;;;;;;5071526;28;20028;-62
2023/12/17 02:49:16;;;;;;;19.90;11.38;;;2.90;99.90;;;;;;5070962;28;20042;-62
2023/12/17 02:51:41;;;;;;;21.15;11.82;;;2.80;99.90;;;;;;5071133;28;20021;-62
2023/12/17 02:54:07;;;;;;;26.65;11.65;;;2.80;99.90;;;;;;5070924;28;20107;-62
2023/12/17 02:56:42;;;;;;;36.72;10.35;;;2.70;99.90;;;;;;5071479;28;20039;-63
2023/12/17 02:59:09;;;;;;;19.63;10.90;;;2.70;99.90;;;;;;5070925;28;20072;-62
2023/12/17 03:01:35;;;;;;;18.25;10.18;;;2.70;99.90;;;;;;5070807;28;20029;-62
2023/12/17 03:04:03;;;;;;;17.35;9.23;;;2.70;99.90;;;;;;5070926;28;20020;-63
2023/12/17 03:06:29;;;;;;;16.95;8.88;;;2.60;99.90;;;;;;5071125;28;20077;-62
2023/12/17 03:08:54;;;;;;;10.32;8.73;;;2.70;99.90;;;;;;5070966;28;20111;-62
2023/12/17 03:11:20;;;;;;;10.73;8.95;;;2.70;99.90;;;;;;5071007;28;20029;-62
2023/12/17 03:13:45;;;;;;;12.68;8.77;;;2.70;99.90;;;;;;5071371;28;20085;-62
2023/12/17 03:16:11;;;;;;;16.80;8.20;;;2.80;99.90;;;;;;5070762;28;20522;-63
2023/12/17 03:18:37;;;;;;;11.75;8.93;;;2.70;99.90;;;;;;5070967;28;20411;-63
2023/12/17 03:21:05;;;;;;;15.90;8.60;;;2.70;99.90;;;;;;5070912;28;20801;-62
2023/12/17 03:23:30;;;;;;;15.00;8.00;;;2.70;99.90;;;;;;5070630;28;20036;-61
2023/12/17 03:25:56;;;;;;;10.73;8.00;;;2.70;99.90;;;;;;5070812;28;20036;-63
2023/12/17 03:28:22;;;;;;;10.50;8.13;;;2.60;99.90;;;;;;5070577;28;20036;-62
2023/12/17 03:30:48;;;;;;;10.52;8.85;;;2.70;99.90;;;;;;5070807;28;20020;-62
2023/12/17 03:33:13;;;;;;;12.55;8.68;;;2.80;99.90;;;;;;5070703;28;20020;-63
2023/12/17 03:35:39;;;;;;;12.07;8.07;;;2.80;99.90;;;;;;5074276;28;20064;-62
2023/12/17 03:38:05;;;;;;;9.27;7.75;;;2.80;99.90;;;;;;5074566;28;20052;-62
2023/12/17 03:40:31;;;;;;;10.45;7.47;;;2.80;99.90;;;;;;5074555;28;20035;-62
2023/12/17 03:42:56;;;;;;;13.88;7.72;;;2.80;99.90;;;;;;5074793;28;20029;-62
2023/12/17 03:45:22;;;;;;;11.77;7.32;;;2.70;99.90;;;;;;5073961;28;20039;-62
2023/12/17 03:47:48;;;;;;;7.90;7.10;;;2.60;99.90;;;;;;5074512;28;20040;-63
2023/12/17 03:50:18;;;;;;;12.75;7.82;;;2.60;99.90;;;;;;5074362;28;20036;-62
2023/12/17 03:52:47;;;;;;;8.75;7.85;;;2.50;99.90;;;;;;5074452;28;20017;-62
2023/12/17 03:55:14;;;;;;;13.10;7.80;;;2.40;99.90;;;;;;5074441;28;20078;-62
2023/12/17 03:57:40;;;;;;;9.30;8.40;;;2.40;99.90;;;;;;5074398;28;20017;-62
2023/12/17 04:00:07;;;;;;;11.75;8.52;;;2.60;99.90;;;;;;5073662;28;20071;-62
2023/12/17 04:02:33;;;;;;;10.73;8.25;;;2.50;99.90;;;;;;5074543;28;20024;-62
2023/12/17 04:04:59;;;;;;;10.25;7.80;;;2.80;99.90;;;;;;5073998;28;20020;-62
2023/12/17 04:07:29;;;;;;;12.93;8.50;;;2.90;99.90;;;;;;5074079;28;20137;-63
2023/12/17 04:09:59;;;;;;;14.43;7.68;;;3.00;99.90;;;;;;5074106;28;20021;-62
2023/12/17 04:12:25;;;;;;;12.07;7.65;;;3.00;99.90;;;;;;5073965;28;20111;-63
2023/12/17 04:14:50;;;;;;;9.32;7.10;;;3.00;99.90;;;;;;5073882;28;20115;-62
2023/12/17 04:17:16;;;;;;;9.73;7.50;;;3.10;99.90;;;;;;5073967;28;20071;-62
2023/12/17 04:19:41;;;;;;;8.00;7.20;;;3.10;99.90;;;;;;5074338;28;20460;-63
2023/12/17 04:22:07;;;;;;;8.20;7.40;;;3.30;99.90;;;;;;5073909;28;20515;-62
2023/12/17 04:24:33;;;;;;;9.27;6.70;;;3.30;99.90;;;;;;5073707;28;20399;-62
2023/12/17 04:26:58;;;;;;;9.85;6.47;;;3.20;99.90;;;;;;5073693;28;20483;-62
2023/12/17 04:29:24;;;;;;;7.50;6.70;;;3.00;99.90;;;;;;5073346;28;20560;-62
2023/12/17 04:31:50;;;;;;;9.82;6.78;;;2.90;99.90;;;;;;5073845;28;20032;-63
2023/12/17 04:34:16;;;;;;;8.45;6.50;;;2.80;99.90;;;;;;5073660;28;20051;-62
2023/12/17 04:36:42;;;;;;;7.50;6.63;;;2.60;99.90;;;;;;5073941;28;20553;-62
2023/12/17 04:39:09;;;;;;;6.57;5.88;;;2.60;99.90;;;;;;5073714;28;20027;-61
2023/12/17 04:41:38;;;;;;;9.73;6.55;;;2.50;99.90;;;;;;5073482;28;20179;-63
2023/12/17 04:44:04;;;;;;;7.47;6.55;;;2.50;99.90;;;;;;5073354;28;20033;-62
2023/12/17 04:46:30;;;;;;;8.10;7.03;;;2.50;99.90;;;;;;5072572;28;20031;-63
2023/12/17 04:48:56;;;;;;;9.82;8.10;;;2.40;99.90;;;;;;5073462;28;20486;-62
2023/12/17 04:51:22;;;;;;;10.65;8.00;;;2.40;99.90;;;;;;5073253;28;20139;-62
2023/12/17 04:53:51;;;;;;;8.70;7.70;;;2.30;99.90;;;;;;5073216;28;20032;-62
2023/12/17 04:56:18;;;;;;;8.05;7.25;;;2.30;99.90;;;;;;5073078;28;20596;-62
2023/12/17 04:58:45;;;;;;;8.60;7.80;;;2.30;99.90;;;;;;5072925;28;20031;-62
2023/12/17 05:01:11;;;;;;;8.23;7.07;;;2.40;99.90;;;;;;5073377;28;20052;-62
2023/12/17 05:03:38;;;;;;;9.13;7.82;;;2.30;99.90;;;;;;5072912;28;20063;-62
2023/12/17 05:06:04;;;;;;;8.95;7.88;;;2.30;99.90;;;;;;5072935;28;20541;-62
2023/12/17 05:08:30;;;;;;;8.30;7.45;;;2.20;99.90;;;;;;5072966;28;20105;-63
2023/12/17 05:10:55;;;;;;;11.82;8.38;;;2.20;99.90;;;;;;5072870;28;20455;-62
2023/12/17 05:13:21;;;;;;;9.32;8.40;;;2.20;99.90;;;;;;5072864;28;20047;-62
2023/12/17 05:15:47;;;;;;;9.63;8.68;;;2.20;99.90;;;;;;5072824;28;20411;-62
2023/12/17 05:18:13;;;;;;;10.98;9.65;;;2.30;99.90;;;;;;5072824;28;20103;-62
2023/12/17 05:20:39;;;;;;;13.30;10.23;;;2.30;99.90;;;;;;5072739;28;20372;-62
2023/12/17 05:23:05;;;;;;;12.27;10.52;;;2.20;99.90;;;;;;5072717;28;20510;-61
2023/12/17 05:25:31;;;;;;;13.50;11.15;;;2.20;99.90;;;;;;5072616;28;20048;-62
2023/12/17 05:27:56;;;;;;;14.68;12.07;;;2.20;99.90;;;;;;5072169;28;20037;-62
2023/12/17 05:30:22;;;;;;;14.27;11.50;;;2.20;99.90;;;;;;5072635;28;20028;-62
2023/12/17 05:32:49;;;;;;;13.07;11.68;;;2.10;99.90;;;;;;5072534;28;20036;-62
2023/12/17 05:35:15;;;;;;;14.88;11.95;;;2.10;99.90;;;;;;5072692;28;20025;-62
2023/12/17 05:37:40;;;;;;;13.40;12.00;;;2.10;99.90;;;;;;5072565;28;20028;-62
2023/12/17 05:40:07;;;;;;;14.73;13.13;;;2.10;99.90;;;;;;5072287;28;20025;-61
2023/12/17 05:42:34;;;;;;;14.57;12.50;;;2.00;99.90;;;;;;5071973;28;20029;-61
2023/12/17 05:45:00;;;;;;;16.35;13.00;;;2.00;99.90;;;;;;5072405;28;20024;-62
2023/12/17 05:47:26;;;;;;;16.40;13.05;;;2.00;99.90;;;;;;5072256;28;20024;-62
2023/12/17 05:49:51;;;;;;;16.27;12.93;;;2.00;99.90;;;;;;5072344;28;20472;-62
2023/12/17 05:52:17;;;;;;;15.30;12.60;;;2.00;99.90;;;;;;5071960;28;20024;-62
2023/12/17 05:54:46;;;;;;;15.48;12.18;;;1.90;99.90;;;;;;5071841;28;20024;-62
2023/12/17 05:57:11;;;;;;;13.40;12.00;;;2.00;99.90;;;;;;5071160;28;20047;-62
2023/12/17 05:59:40;;;;;;;14.57;12.32;;;2.00;99.90;;;;;;5071553;28;20135;-63
2023/12/17 06:02:06;;;;;;;14.07;12.13;;;2.10;99.90;;;;;;5072384;28;20036;-61
2023/12/17 06:04:32;;;;;;;13.98;11.85;;;1.90;99.90;;;;;;5071828;28;20017;-62
2023/12/17 06:06:58;;;;;;;13.93;11.82;;;1.80;99.90;;;;;;5071845;28;20066;-62
2023/12/17 06:09:24;;;;;;;18.40;12.00;;;1.80;99.90;;;;;;5072085;28;20392;-62
2023/12/17 06:11:50;;;;;;;15.18;12.73;;;1.80;99.90;;;;;;5071563;28;20384;-62
2023/12/17 06:14:17;;;;;;;15.60;12.50;;;1.90;99.90;;;;;;5071534;28;20096;-62
2023/12/17 06:16:43;;;;;;;16.52;12.60;;;1.90;99.90;;;;;;5071526;28;20094;-61
2023/12/17 06:19:09;;;;;;;16.52;13.05;;;1.90;99.90;;;;;;5071571;28;20082;-62
2023/12/17 06:21:35;;;;;;;16.85;13.43;;;1.80;99.90;;;;;;5071808;28;20086;-62
2023/12/17 06:24:02;;;;;;;17.35;14.77;;;2.10;99.90;;;;;;5071624;28;20021;-62
2023/12/17 06:26:28;;;;;;;17.25;13.77;;;2.30;99.90;;;;;;5071179;28;20428;-62
2023/12/17 06:28:54;;;;;;;16.00;13.45;;;2.30;99.90;;;;;;5071563;28;20017;-61
2023/12/17 06:31:19;;;;;;;16.73;14.20;;;2.50;99.90;;;;;;5071582;28;20039;-62
2023/12/17 06:33:46;;;;;;;18.30;14.88;;;2.50;99.90;;;;;;5071425;28;20031;-61
2023/12/17 06:36:11;;;;;;;19.85;16.13;;;2.50;99.90;;;;;;5071335;28;20040;-62
2023/12/17 06:38:39;;;;;;;21.77;17.15;;;2.60;99.90;;;;;;5071318;28;20028;-62
2023/12/17 06:41:07;;;;;;;21.58;17.17;;;2.60;99.90;;;;;;5071557;28;20032;-62
2023/12/17 06:43:33;;;;;;;20.27;15.95;;;2.50;99.90;;;;;;5071062;28;20020;-62
2023/12/17 06:45:59;;;;;;;19.48;14.95;;;2.30;99.90;;;;;;5071255;28;20500;-61
2023/12/17 06:48:24;;;;;;;16.13;13.48;;;2.20;99.90;;;;;;5069978;28;20017;-62
2023/12/17 06:50:50;;;;;;;17.48;14.25;;;2.00;99.90;;;;;;5071359;28;20056;-63
2023/12/17 06:53:17;;;;;;;23.55;17.02;;;2.00;99.90;;;;;;5071348;28;20052;-61
2023/12/17 06:55:43;;;;;;;21.27;17.00;;;1.80;99.90;;;;;;5070783;28;20025;-63
2023/12/17 06:58:09;;;;;;;32.63;21.50;;;1.70;99.90;;;;;;5071175;28;20036;-61
2023/12/17 07:00:34;;;;;;;29.38;20.00;;;1.60;99.90;;;;;;5070901;28;20048;-62
2023/12/17 07:03:01;;;;;;;25.67;19.00;;;1.50;99.90;;;;;;5071124;28;20024;-62
2023/12/17 07:05:27;;;;;;;22.48;17.02;;;1.50;99.90;;;;;;5071395;28;20061;-62
2023/12/17 07:07:53;;;;;;;22.30;17.13;;;1.40;99.90;;;;;;5071037;28;20024;-62
2023/12/17 07:10:20;;;;;;;21.13;17.20;;;1.40;99.90;;;;;;5070489;28;20029;-62
2023/12/17 07:12:46;;;;;;;21.75;17.30;;;1.40;99.90;;;;;;5071216;28;20025;-62
2023/12/17 07:15:12;;;;;;;22.20;16.77;;;1.50;99.90;;;;;;5070964;28;20033;-61
2023/12/17 07:17:38;;;;;;;23.65;18.27;;;1.60;99.90;;;;;;5070950;28;20584;-61
2023/12/17 07:20:04;;;;;;;21.17;18.65;;;1.60;99.90;;;;;;5070834;28;20035;-62
2023/12/17 07:22:30;;;;;;;23.00;18.55;;;1.60;99.90;;;;;;5070504;28;20024;-61
2023/12/17 07:24:55;;;;;;;20.77;16.80;;;1.50;99.90;;;;;;5071120;28;20074;-62
2023/12/17 07:27:21;;;;;;;24.67;20.23;;;1.40;99.90;;;;;;5070925;28;20037;-61
2023/12/17 07:29:47;;;;;;;22.88;19.67;;;1.40;99.90;;;;;;5071074;28;20119;-62
2023/12/17 07:32:13;;;;;;;24.65;20.15;;;1.50;99.90;;;;;;5070900;28;20086;-62
2023/12/17 07:34:39;;;;;;;23.75;18.52;;;1.40;99.90;;;;;;5070658;28;20442;-61
2023/12/17 07:37:04;;;;;;;21.02;17.45;;;1.40;99.90;;;;;;5070832;28;20042;-62
2023/12/17 07:39:30;;;;;;;21.33;17.67;;;1.50;99.90;;;;;;5070626;28;20055;-62
2023/12/17 07:41:56;;;;;;;20.48;16.67;;;1.50;99.90;;;;;;5070652;28;20487;-62
2023/12/17 07:44:22;;;;;;;19.27;16.23;;;1.50;99.90;;;;;;5070765;28;20452;-62
2023/12/17 07:46:47;;;;;;;18.50;15.32;;;1.50;99.90;;;;;;5070715;28;20032;-62
2023/12/17 07:49:13;;;;;;;19.20;15.45;;;1.50;99.90;;;;;;5070569;28;20459;-62
2023/12/17 07:51:39;;;;;;;18.05;14.63;;;1.60;99.90;;;;;;5070426;28;20020;-61
2023/12/17 07:54:07;;;;;;;18.42;15.13;;;1.60;99.90;;;;;;5070426;28;20060;-62
2023/12/17 07:56:33;;;;;;;17.70;14.38;;;1.50;99.90;;;;;;5070526;28;20438;-63
2023/12/17 07:58:59;;;;;;;16.05;14.10;;;1.50;99.90;;;;;;5070485;28;20045;-61
2023/12/17 08:01:29;;;;;;;15.98;13.25;;;1.50;99.90;;;;;;5070916;28;20063;-62
2023/12/17 08:03:55;;;;;;;15.90;12.73;;;1.50;99.90;;;;;;5070336;28;20020;-61
2023/12/17 08:06:21;;;;;;;12.93;11.57;;;1.60;99.90;;;;;;5070337;28;20047;-63
2023/12/17 08:08:46;;;;;;;13.13;11.70;;;1.60;99.90;;;;;;5064887;28;20391;-61
2023/12/17 08:11:12;;;;;;;12.07;10.88;;;1.60;99.90;;;;;;5070960;28;20529;-62
2023/12/17 08:13:38;;;;;;;15.05;11.65;;;1.60;99.90;;;;;;5070358;28;20036;-61
2023/12/17 08:16:04;;;;;;;13.68;11.35;;;1.70;99.90;;;;;;5070316;28;20077;-63
2023/12/17 08:18:30;;;;;;;14.18;12.00;;;1.70;99.90;;;;;;5070380;28;20104;-63
2023/12/17 08:20:57;;;;;;;16.00;13.50;;;1.80;99.90;;;;;;5070414;28;20158;-63
2023/12/17 08:23:23;;;;;;;16.65;13.68;;;1.80;99.90;;;;;;5073798;28;20552;-63
2023/12/17 08:25:49;;;;;;;18.15;14.10;;;1.80;99.90;;;;;;5066033;28;20017;-63
2023/12/17 08:28:16;;;;;;;17.67;14.02;;;1.80;99.90;;;;;;5073704;28;20020;-63
2023/12/17 08:30:42;;;;;;;17.63;13.63;;;1.80;99.90;;;;;;5073680;28;20608;-63
2023/12/17 08:33:07;;;;;;;18.17;13.23;;;1.80;99.90;;;;;;5074104;28;20103;-63
2023/12/17 08:35:36;;;;;;;14.75;12.45;;;1.90;99.90;;;;;;5073227;28;20025;-63
2023/12/17 08:38:05;;;;;;;14.30;11.02;;;2.00;99.90;;;;;;5073740;28;20116;-66
2023/12/17 08:40:33;;;;;;;11.77;10.57;;;2.10;99.90;;;;;;5073549;28;20034;-65
2023/12/17 08:43:02;;;;;;;15.07;11.77;;;2.30;99.90;;;;;;5060216;28;20409;-65
2023/12/17 08:45:28;;;;;;;18.00;14.70;;;2.60;99.90;;;;;;5065712;28;20029;-67
2023/12/17 08:47:54;;;;;;;17.23;13.75;;;2.70;99.90;;;;;;5067670;28;20479;-66
2023/12/17 08:50:19;;;;;;;13.65;10.98;;;2.90;99.90;;;;;;5072600;28;20430;-68
2023/12/17 08:52:45;;;;;;;13.25;11.45;;;3.10;99.90;;;;;;5073568;28;20558;-66
2023/12/17 08:55:11;;;;;;;10.52;9.07;;;3.20;99.90;;;;;;5073254;28;20028;-66
2023/12/17 08:57:37;;;;;;;12.05;8.80;;;3.30;99.90;;;;;;5073050;28;20036;-66
2023/12/17 09:00:04;;;;;;;9.18;8.27;;;3.40;99.90;;;;;;5072175;28;20072;-66
2023/12/17 09:02:31;;;;;;;9.80;8.38;;;3.60;99.90;;;;;;5072307;28;20391;-66
2023/12/17 09:04:57;;;;;;;9.02;7.25;;;3.60;99.90;;;;;;5072648;28;20055;-66
2023/12/17 09:07:23;;;;;;;10.32;8.02;;;3.50;99.90;;;;;;5073042;28;20032;-66
2023/12/17 09:09:49;;;;;;;8.65;7.85;;;3.40;99.90;;;;;;5072568;28;20024;-66
2023/12/17 09:12:16;;;;;;;9.27;7.90;;;3.30;99.90;;;;;;5073119;28;20439;-66
2023/12/17 09:14:42;;;;;;;9.13;8.20;;;3.30;99.90;;;;;;5072711;28;20567;-65
2023/12/17 09:17:08;;;;;;;10.40;8.45;;;3.20;99.90;;;;;;5060642;28;20098;-65
2023/12/17 09:19:34;;;;;;;9.55;7.57;;;3.20;99.90;;;;;;5052529;28;20096;-66
2023/12/17 09:21:59;;;;;;;11.25;8.50;;;3.20;99.90;;;;;;5053085;28;20100;-66
2023/12/17 09:24:25;;;;;;;9.05;8.07;;;3.20;99.90;;;;;;5052670;28;20021;-65
2023/12/17 09:26:51;;;;;;;9.02;8.10;;;3.30;99.90;;;;;;5063661;28;20127;-65
2023/12/17 09:29:17;;;;;;;8.07;7.28;;;3.30;99.90;;;;;;5072327;28;20407;-66
2023/12/17 09:31:43;;;;;;;12.40;7.88;;;3.40;99.90;;;;;;5072137;28;20512;-65
2023/12/17 09:34:09;;;;;;;8.93;7.63;;;3.40;99.90;;;;;;5059824;28;20451;-65
2023/12/17 09:36:35;;;;;;;8.70;7.85;;;3.50;99.90;;;;;;5052384;28;20075;-66
2023/12/17 09:39:00;;;;;;;12.27;10.25;;;3.60;99.90;;;;;;5052487;28;20074;-65
2023/12/17 09:41:26;;;;;;;13.32;10.40;;;3.50;99.90;;;;;;5052295;28;20087;-66
2023/12/17 09:43:52;;;;;;;11.32;9.88;;;3.50;99.90;;;;;;5052392;28;20029;-66
2023/12/17 09:46:19;;;;;;;9.38;7.85;;;3.60;99.90;;;;;;5066507;28;20040;-65
2023/12/17 09:48:44;;;;;;;8.48;7.40;;;3.60;99.90;;;;;;5065293;28;20057;-65
2023/12/17 09:51:13;;;;;;;8.20;7.40;;;3.70;99.90;;;;;;5052639;28;20440;-65
2023/12/17 09:53:39;;;;;;;8.90;6.85;;;3.90;99.90;;;;;;5052882;28;20100;-66
2023/12/17 09:56:05;;;;;;;10.45;7.53;;;4.00;99.90;;;;;;5071974;28;20143;-65
2023/12/17 09:58:31;;;;;;;10.00;8.52;;;4.10;99.90;;;;;;5071895;28;20032;-65
2023/12/17 10:00:56;;;;;;;9.13;8.15;;;4.20;99.90;;;;;;5072425;28;20502;-65
2023/12/17 10:03:22;;;;;;;9.75;7.78;;;4.30;99.90;;;;;;5071735;28;20505;-66
2023/12/17 10:05:52;;;;;;;10.20;7.95;;;4.40;99.90;;;;;;5071392;28;20028;-65
2023/12/17 10:08:18;;;;;;;9.30;7.03;;;4.50;99.90;;;;;;5066082;28;20151;-65
2023/12/17 10:10:44;;;;;;;10.07;7.00;;;4.50;99.90;;;;;;5059455;28;20066;-65
2023/12/17 10:13:12;;;;;;;7.90;6.88;;;4.60;99.90;;;;;;5055705;28;20021;-62
2023/12/17 10:15:39;;;;;;;8.20;6.57;;;4.60;99.90;;;;;;5071394;28;20064;-65
2023/12/17 10:18:04;;;;;;;9.90;6.72;;;4.70;99.90;;;;;;5071428;28;20036;-65
2023/12/17 10:20:30;;;;;;;8.82;7.07;;;4.70;99.90;;;;;;5061513;28;20043;-65
2023/12/17 10:23:01;;;;;;;10.15;8.30;;;4.80;99.90;;;;;;5055438;28;20037;-64
2023/12/17 10:25:27;;;;;;;10.23;9.15;;;4.80;99.90;;;;;;5062272;28;20057;-65
2023/12/17 10:27:59;;;;;;;12.85;10.25;;;4.90;99.90;;;;;;5060864;28;20446;-65
2023/12/17 10:30:32;;;;;;;11.60;10.30;;;4.90;99.90;;;;;;5056868;28;20029;-64
2023/12/17 10:33:00;;;;;;;12.25;9.18;;;5.00;99.90;;;;;;5055499;28;20093;-63
2023/12/17 10:35:27;;;;;;;9.50;8.55;;;5.10;99.90;;;;;;5065356;28;20032;-65
2023/12/17 10:37:57;;;;;;;8.93;7.82;;;5.10;99.90;;;;;;5066192;28;20467;-65
2023/12/17 10:40:27;;;;;;;10.27;7.97;;;5.20;99.90;;;;;;5065996;28;20066;-65
2023/12/17 10:42:56;;;;;;;9.93;7.85;;;5.20;99.90;;;;;;5066353;28;20117;-66
2023/12/17 10:45:22;;;;;;;8.75;6.75;;;5.30;99.90;;;;;;5067193;28;20437;-66
2023/12/17 10:47:56;;;;;;;8.32;6.30;;;5.30;99.90;;;;;;5061640;28;20029;-65
2023/12/17 10:50:25;;;;;;;;;;;5.40;99.90;;;;;;5059158;28;20406;-64
2023/12/17 10:52:51;;;;;;;7.50;6.70;;;5.50;99.90;;;;;;5058912;28;20409;-65
2023/12/17 10:55:18;;;;;;;6.93;6.22;;;5.50;99.90;;;;;;5060054;28;20029;-63
2023/12/17 10:57:52;;;;;;;6.82;5.97;;;5.70;99.90;;;;;;5056234;28;20028;-65
2023/12/17 11:00:22;;;;;;;9.00;5.88;;;5.90;99.90;;;;;;5063338;28;20063;-64
2023/12/17 11:02:51;;;;;;;9.82;6.32;;;6.10;99.90;;;;;;5068390;28;20029;-65
2023/12/17 11:05:17;;;;;;;8.40;6.13;;;6.30;99.90;;;;;;5070195;28;20527;-65
2023/12/17 11:07:43;;;;;;;6.72;5.78;;;6.50;99.90;;;;;;5070884;28;20060;-65
2023/12/17 11:10:12;;;;;;;7.93;6.47;;;6.60;99.90;;;;;;5070942;28;20533;-65
2023/12/17 11:12:39;;;;;;;6.38;5.70;;;6.70;99.90;;;;;;5070711;28;20059;-65
2023/12/17 11:15:06;;;;;;;7.53;6.20;;;6.90;99.90;;;;;;5070578;28;20031;-65
2023/12/17 11:17:31;;;;;;;7.85;5.97;;;6.90;99.90;;;;;;5070802;28;20059;-65
2023/12/17 11:20:00;;;;;;;6.45;5.85;;;7.00;99.90;;;;;;5071345;28;20063;-65
2023/12/17 11:22:27;;;;;;;8.45;5.90;;;7.20;99.90;;;;;;5070795;28;20032;-65
2023/12/17 11:24:57;;;;;;;7.40;6.22;;;7.10;99.90;;;;;;5070875;28;20074;-64
2023/12/17 11:27:24;;;;;;;6.18;5.13;;;7.10;99.90;;;;;;5070687;28;20519;-65
2023/12/17 11:29:51;;;;;;;5.85;5.22;;;7.10;99.90;;;;;;5071001;28;20108;-64
2023/12/17 11:32:20;;;;;;;6.97;5.10;;;7.00;99.90;;;;;;5070923;28;20026;-65
2023/12/17 11:34:50;;;;;;;6.72;5.57;;;7.10;99.90;;;;;;5070657;28;20499;-65
2023/12/17 11:37:24;;;;;;;6.40;4.95;;;7.10;99.90;;;;;;5070703;28;20037;-65
2023/12/17 11:39:50;;;;;;;6.53;4.82;;;7.10;99.90;;;;;;5070728;28;20075;-65
2023/12/17 11:42:18;;;;;;;5.78;4.63;;;7.10;99.90;;;;;;5069331;28;20024;-65
2023/12/17 11:44:48;;;;;;;5.38;4.68;;;7.30;99.90;;;;;;5070231;28;20069;-65
2023/12/17 11:47:16;;;;;;;6.45;5.03;;;7.30;99.90;;;;;;5070530;28;20021;-65
2023/12/17 11:49:44;;;;;;;5.43;4.80;;;7.30;99.90;;;;;;5070953;28;20064;-65
2023/12/17 11:52:13;;;;;;;6.05;4.75;;;7.40;99.90;;;;;;5070600;28;20028;-64
2023/12/17 11:54:39;;;;;;;7.50;5.70;;;7.40;99.90;;;;;;5070504;28;20024;-64
2023/12/17 11:57:20;;;;;;;10.63;5.95;;;7.60;99.90;;;;;;5074050;28;20040;-64
2023/12/17 11:59:46;;;;;;;6.20;5.60;;;7.90;99.90;;;;;;5073836;28;20510;-64
2023/12/17 12:02:15;;;;;;;8.00;5.70;;;7.90;99.90;;;;;;5074435;28;20044;-65
2023/12/17 12:04:42;;;;;;;6.53;5.70;;;7.90;99.90;;;;;;5074244;28;20028;-65
2023/12/17 12:07:09;;;;;;;6.93;6.22;;;7.90;99.90;;;;;;5074256;28;20029;-64
2023/12/17 12:09:34;;;;;;;8.18;6.63;;;7.90;99.90;;;;;;5074718;28;20040;-65
2023/12/17 12:12:00;;;;;;;8.50;6.07;;;7.90;99.90;;;;;;5074037;28;20020;-65
2023/12/17 12:14:26;;;;;;;4.72;4.22;;;8.00;99.90;;;;;;5073624;28;20036;-64
2023/12/17 12:16:54;;;;;;;6.10;4.90;;;8.10;99.90;;;;;;5073954;28;20127;-64
2023/12/17 12:19:20;;;;;;;5.65;4.70;;;8.10;99.90;;;;;;5073970;28;20498;-64
2023/12/17 12:21:50;;;;;;;5.03;4.05;;;8.20;99.90;;;;;;5073981;28;20086;-64
2023/12/17 12:24:21;;;;;;;7.70;6.65;;;8.30;99.90;;;;;;5073829;28;20021;-64
2023/12/17 12:26:47;;;;;;;4.80;4.30;;;8.50;99.90;;;;;;5074044;28;20028;-64
2023/12/17 12:29:12;;;;;;;6.28;5.68;;;8.50;99.90;;;;;;5072257;28;20030;-64
2023/12/17 12:31:38;;;;;;;5.85;4.47;;;8.60;99.90;;;;;;5073416;28;20122;-64
2023/12/17 12:34:05;;;;;;;5.57;4.00;;;8.60;99.90;;;;;;5073560;28;20410;-64
2023/12/17 12:36:45;;;;;;;4.60;4.07;;;8.60;99.90;;;;;;5073448;28;20037;-65
2023/12/17 12:39:11;;;;;;;6.93;4.88;;;8.60;99.90;;;;;;5073924;28;20364;-64
2023/12/17 12:41:43;;;;;;;4.40;4.00;;;8.70;99.90;;;;;;5073275;28;20086;-65